Terminal Aerodrome Forecast
Issued by NWS

Home | Current Version | Previous Version | Graphics & Text | Print | Product List | Glossary On
Versions: 1 2 3 4 5 6 7 8 9 10 11 12 13 14 15 16 17 18 19 20
000
FTUS41 KCLE 160531
TAFFDY
TAF
KFDY 160531Z 1606/1706 25015KT P6SM -SN BKN025 OVC040
      TEMPO 1607/1611 BKN015 OVC025
     FM161100 25011KT P6SM BKN025 OVC040
     FM170300 25006KT P6SM SCT007 OVC010=

USA.gov is the U.S. government's official web portal to all federal, state and local government web resources and services.